createdAt,value
2022-09-12T00:01:04.830Z,18.00
2022-09-12T00:03:29.798Z,17.83
2022-09-12T00:05:53.193Z,16.90
2022-09-12T00:08:16.872Z,19.33
2022-09-12T00:10:42.003Z,17.38
2022-09-12T00:13:05.815Z,17.80
2022-09-12T00:15:29.350Z,17.40
2022-09-12T00:17:52.914Z,18.15
2022-09-12T00:20:18.058Z,18.75
2022-09-12T00:22:41.486Z,17.52
2022-09-12T00:25:06.997Z,18.33
2022-09-12T00:27:31.154Z,19.05
2022-09-12T00:29:54.823Z,17.40
2022-09-12T00:32:18.409Z,17.58
2022-09-12T00:34:41.857Z,18.63
2022-09-12T00:37:06.871Z,18.92
2022-09-12T00:39:30.365Z,19.00
2022-09-12T00:41:53.857Z,18.88
2022-09-12T00:44:57.095Z,18.27
2022-09-12T00:47:32.379Z,18.60
2022-09-12T00:50:02.098Z,20.25
2022-09-12T00:52:30.829Z,18.25
2022-09-12T00:54:59.521Z,19.55
2022-09-12T00:57:25.307Z,18.25
2022-09-12T00:59:52.725Z,17.90
2022-09-12T01:02:17.041Z,18.45
2022-09-12T01:04:42.605Z,19.13
2022-09-12T01:07:07.901Z,19.35
2022-09-12T01:09:32.879Z,18.83
2022-09-12T01:11:57.203Z,18.52
2022-09-12T01:14:22.121Z,18.77
2022-09-12T01:16:46.706Z,18.88
2022-09-12T01:19:44.046Z,18.83
2022-09-12T01:22:27.864Z,20.05
2022-09-12T01:25:08.023Z,20.40
2022-09-12T01:27:45.951Z,19.55
2022-09-12T01:30:52.652Z,21.05
2022-09-12T01:33:36.247Z,20.35
2022-09-12T01:36:24.229Z,19.35
2022-09-12T01:38:51.399Z,20.52
2022-09-12T01:41:26.055Z,20.08
2022-09-12T01:43:56.118Z,19.83
2022-09-12T01:46:25.623Z,20.73
2022-09-12T01:48:58.327Z,20.52
2022-09-12T01:51:27.868Z,21.25
2022-09-12T01:53:56.783Z,23.25
2022-09-12T01:56:26.641Z,22.70
2022-09-12T01:58:55.401Z,22.92
2022-09-12T02:01:23.749Z,23.15
2022-09-12T02:03:56.168Z,21.75
2022-09-12T02:06:24.187Z,22.67
2022-09-12T02:08:53.586Z,22.38
2022-09-12T02:11:17.177Z,22.17
2022-09-12T02:13:44.774Z,21.95
2022-09-12T02:16:11.901Z,22.60
2022-09-12T02:18:40.618Z,22.25
2022-09-12T02:21:08.825Z,23.27
2022-09-12T02:23:34.113Z,22.42
2022-09-12T02:26:07.431Z,24.30
2022-09-12T02:28:36.153Z,23.15
2022-09-12T02:31:10.794Z,24.52
2022-09-12T02:33:46.593Z,23.20
2022-09-12T02:36:24.056Z,23.23
2022-09-12T02:38:50.123Z,22.52
2022-09-12T02:41:15.808Z,24.23
2022-09-12T02:43:39.389Z,24.48
2022-09-12T02:46:02.883Z,24.70
2022-09-12T02:48:30.290Z,24.30
2022-09-12T02:50:55.675Z,25.45
2022-09-12T02:53:20.423Z,23.05
2022-09-12T02:55:45.030Z,23.80
2022-09-12T02:58:13.201Z,25.65
2022-09-12T03:00:46.691Z,24.98
2022-09-12T03:03:33.299Z,26.27
2022-09-12T03:06:01.471Z,25.23
2022-09-12T03:08:58.253Z,24.75
2022-09-12T03:11:49.534Z,25.25
2022-09-12T03:14:27.840Z,23.83
2022-09-12T03:17:04.380Z,24.05
2022-09-12T03:19:35.353Z,25.23
2022-09-12T03:22:10.599Z,25.42
2022-09-12T03:24:38.502Z,24.38
2022-09-12T03:27:11.248Z,24.67
2022-09-12T03:29:35.112Z,25.88
2022-09-12T03:32:00.644Z,24.05
2022-09-12T03:34:25.609Z,24.52
2022-09-12T03:36:49.832Z,25.73
2022-09-12T03:39:14.784Z,23.55
2022-09-12T03:41:38.255Z,25.50
2022-09-12T03:44:01.723Z,24.30
2022-09-12T03:46:25.320Z,24.98
2022-09-12T03:48:50.830Z,23.92
2022-09-12T03:51:14.393Z,25.90
2022-09-12T03:53:38.138Z,24.67
2022-09-12T03:56:08.427Z,24.10
2022-09-12T03:58:33.901Z,24.80
2022-09-12T04:00:57.354Z,26.23
2022-09-12T04:03:20.851Z,24.55
2022-09-12T04:05:44.313Z,23.60
2022-09-12T04:08:07.991Z,24.08
2022-09-12T04:10:32.580Z,25.23
2022-09-12T04:12:57.413Z,24.20
2022-09-12T04:15:20.865Z,23.80
2022-09-12T04:17:44.714Z,24.00
2022-09-12T04:20:09.154Z,23.80
2022-09-12T04:22:33.369Z,23.70
2022-09-12T04:24:56.859Z,23.33
2022-09-12T04:27:20.384Z,24.05
2022-09-12T04:29:45.274Z,23.25
2022-09-12T04:32:09.341Z,23.52
2022-09-12T04:34:32.840Z,23.02
2022-09-12T04:36:56.218Z,22.30
2022-09-12T04:39:19.745Z,22.00
2022-09-12T04:41:43.174Z,20.75
2022-09-12T04:44:09.897Z,21.05
2022-09-12T04:46:38.674Z,22.42
2022-09-12T04:49:02.194Z,21.75
2022-09-12T04:51:28.851Z,21.33
2022-09-12T04:53:54.522Z,21.75
2022-09-12T04:56:18.973Z,22.15
2022-09-12T04:58:42.449Z,22.08
2022-09-12T05:01:08.145Z,21.42
2022-09-12T05:03:33.040Z,21.08
2022-09-12T05:05:56.692Z,22.27
2022-09-12T05:08:20.126Z,21.63
2022-09-12T05:10:44.006Z,20.80
2022-09-12T05:13:07.502Z,20.50
2022-09-12T05:15:30.953Z,20.67
2022-09-12T05:17:54.356Z,20.08
2022-09-12T05:20:19.592Z,18.92
2022-09-12T05:22:43.000Z,20.42
2022-09-12T05:25:07.971Z,19.02
2022-09-12T05:27:31.441Z,20.75
2022-09-12T05:29:55.305Z,20.50
2022-09-12T05:32:18.726Z,19.65
2022-09-12T05:34:42.404Z,19.95
2022-09-12T05:37:07.309Z,20.15
2022-09-12T05:39:30.938Z,20.77
2022-09-12T05:41:54.349Z,18.50
2022-09-12T05:44:17.976Z,18.60
2022-09-12T05:46:44.220Z,19.52
2022-09-12T05:49:11.522Z,18.55
2022-09-12T05:51:39.323Z,17.63
2022-09-12T05:54:07.696Z,17.50
2022-09-12T05:56:34.329Z,17.08
2022-09-12T05:59:02.288Z,18.15
2022-09-12T06:01:27.338Z,17.73
2022-09-12T06:03:54.254Z,17.15
2022-09-12T06:06:19.184Z,17.35
2022-09-12T06:08:45.484Z,17.10
2022-09-12T06:11:12.717Z,16.25
2022-09-12T06:13:41.118Z,16.33
2022-09-12T06:16:06.986Z,17.55
2022-09-12T06:18:30.499Z,17.17
2022-09-12T06:20:54.059Z,16.52
2022-09-12T06:23:17.513Z,17.20
2022-09-12T06:25:49.476Z,16.83
2022-09-12T06:28:14.345Z,18.00
2022-09-12T06:30:37.780Z,17.48
2022-09-12T06:33:01.324Z,19.27
2022-09-12T06:35:24.820Z,17.60
2022-09-12T06:37:48.425Z,17.02
2022-09-12T06:40:12.712Z,17.13
2022-09-12T06:42:36.226Z,18.05
2022-09-12T06:45:01.694Z,18.98
2022-09-12T06:47:25.244Z,18.45
2022-09-12T06:49:49.292Z,19.50
2022-09-12T06:52:12.667Z,18.35
2022-09-12T06:54:36.150Z,20.42
2022-09-12T06:56:59.673Z,18.90
2022-09-12T06:59:23.256Z,19.80
2022-09-12T07:01:48.220Z,20.92
2022-09-12T07:04:11.924Z,20.92
2022-09-12T07:06:39.933Z,21.38
2022-09-12T07:09:06.569Z,22.75
2022-09-12T07:11:32.757Z,25.67
2022-09-12T07:13:57.942Z,27.88
2022-09-12T07:16:22.198Z,27.02
2022-09-12T07:18:51.474Z,27.90
2022-09-12T07:21:16.448Z,30.05
2022-09-12T07:23:40.202Z,29.45
2022-09-12T07:26:04.178Z,28.80
2022-09-12T07:28:29.712Z,28.60
2022-09-12T07:30:54.224Z,27.77
2022-09-12T07:33:17.830Z,25.17
2022-09-12T07:35:43.226Z,25.83
2022-09-12T07:38:07.313Z,26.65
2022-09-12T07:40:30.876Z,23.55
2022-09-12T07:42:54.522Z,24.60
2022-09-12T07:45:18.639Z,22.98
2022-09-12T07:47:42.183Z,23.25
2022-09-12T07:50:06.974Z,21.15
2022-09-12T07:52:32.480Z,22.65
2022-09-12T07:54:56.129Z,20.92
2022-09-12T07:57:19.677Z,21.05
2022-09-12T07:59:55.597Z,22.20
2022-09-12T08:02:19.355Z,20.90
2022-09-12T08:04:43.333Z,20.92
2022-09-12T08:07:07.035Z,20.80
2022-09-12T08:09:31.862Z,20.42
2022-09-12T08:11:55.673Z,19.80
2022-09-12T08:14:19.566Z,20.00
2022-09-12T08:16:43.243Z,19.27
2022-09-12T08:19:06.704Z,21.10
2022-09-12T08:21:32.345Z,20.08
2022-09-12T08:23:58.072Z,19.13
2022-09-12T08:26:27.152Z,18.13
2022-09-12T08:28:51.714Z,18.15
2022-09-12T08:31:19.122Z,18.70
2022-09-12T08:33:43.204Z,18.45
2022-09-12T08:36:08.439Z,18.73
2022-09-12T08:38:32.050Z,17.58
2022-09-12T08:41:05.223Z,18.83
2022-09-12T08:43:52.075Z,18.70
2022-09-12T08:46:23.562Z,18.42
2022-09-12T08:48:51.435Z,18.98
2022-09-12T08:51:18.621Z,17.73
2022-09-12T08:53:44.058Z,18.20
2022-09-12T08:56:12.548Z,19.23
2022-09-12T08:58:43.311Z,17.13
2022-09-12T09:01:13.445Z,19.02
2022-09-12T09:03:57.933Z,18.25
2022-09-12T09:06:41.058Z,16.98
2022-09-12T09:09:12.935Z,17.77
2022-09-12T09:11:50.502Z,17.48
2022-09-12T09:14:51.347Z,17.70
2022-09-12T09:17:21.607Z,16.95
2022-09-12T09:19:51.140Z,16.05
2022-09-12T09:22:20.200Z,15.25
2022-09-12T09:24:50.505Z,15.73
2022-09-12T09:27:44.084Z,14.95
2022-09-12T09:30:16.539Z,15.43
2022-09-12T09:32:43.457Z,14.07
2022-09-12T09:35:17.840Z,15.40
2022-09-12T09:37:45.285Z,14.45
2022-09-12T09:40:24.087Z,13.13
2022-09-12T09:42:55.230Z,12.18
2022-09-12T09:45:24.180Z,10.82
2022-09-12T09:47:50.480Z,10.90
2022-09-12T09:50:17.741Z,9.57
2022-09-12T09:52:42.058Z,9.63
2022-09-12T09:55:14.623Z,9.23
2022-09-12T09:57:44.710Z,9.38
2022-09-12T10:00:30.683Z,8.85
2022-09-12T10:03:27.398Z,9.30
2022-09-12T10:05:53.714Z,10.70
2022-09-12T10:08:27.424Z,9.18
2022-09-12T10:11:07.827Z,9.60
2022-09-12T10:13:39.635Z,8.98
2022-09-12T10:16:08.446Z,8.30
2022-09-12T10:18:38.178Z,7.50
2022-09-12T10:21:03.599Z,6.88
2022-09-12T10:23:37.347Z,6.80
2022-09-12T10:26:05.266Z,7.13
2022-09-12T10:28:34.579Z,7.00
2022-09-12T10:31:00.030Z,6.22
2022-09-12T10:33:27.008Z,6.35
2022-09-12T10:35:51.632Z,7.05
2022-09-12T10:38:23.547Z,5.80
2022-09-12T10:40:47.097Z,6.38
2022-09-12T10:43:19.616Z,6.75
2022-09-12T10:45:43.298Z,6.30
2022-09-12T10:48:31.730Z,5.53
2022-09-12T10:50:56.949Z,4.25
2022-09-12T10:53:23.557Z,4.35
2022-09-12T10:56:04.675Z,5.32
2022-09-12T10:58:50.999Z,4.70
2022-09-12T11:01:27.807Z,3.92
2022-09-12T11:04:28.189Z,4.80
2022-09-12T11:07:20.815Z,4.88
2022-09-12T11:09:51.204Z,4.47
2022-09-12T11:12:25.421Z,4.88
2022-09-12T11:15:05.096Z,3.92
2022-09-12T11:17:42.384Z,4.53
2022-09-12T11:20:55.053Z,4.40
2022-09-12T11:24:17.003Z,4.40
2022-09-12T11:27:04.376Z,4.07
2022-09-12T11:29:45.821Z,4.20
2022-09-12T11:32:53.452Z,3.95
2022-09-12T11:35:25.923Z,4.00
2022-09-12T11:38:14.132Z,4.32
2022-09-12T11:40:44.503Z,4.28
2022-09-12T11:43:25.746Z,4.32
2022-09-12T11:45:50.331Z,4.07
2022-09-12T11:48:30.799Z,3.88
2022-09-12T11:50:54.914Z,3.47
2022-09-12T11:53:25.908Z,3.35
2022-09-12T11:55:57.809Z,3.63
2022-09-12T11:58:26.246Z,2.92
2022-09-12T12:00:54.393Z,2.60
2022-09-12T12:03:28.193Z,2.67
2022-09-12T12:05:57.187Z,3.30
2022-09-12T12:08:23.971Z,3.20
2022-09-12T12:10:56.343Z,2.72
2022-09-12T12:13:23.741Z,2.20
2022-09-12T12:15:50.835Z,2.25
2022-09-12T12:18:19.570Z,2.20
2022-09-12T12:20:43.343Z,2.20
2022-09-12T12:23:06.931Z,2.40
2022-09-12T12:25:54.489Z,2.50
2022-09-12T12:28:59.739Z,2.50
2022-09-12T12:31:23.821Z,2.47
2022-09-12T12:34:29.195Z,2.50
2022-09-12T12:36:52.726Z,2.67
2022-09-12T12:40:06.144Z,2.92
2022-09-12T12:43:24.313Z,2.60
2022-09-12T12:46:11.896Z,2.42
2022-09-12T12:48:59.789Z,2.08
2022-09-12T12:51:51.356Z,2.47
2022-09-12T12:54:57.587Z,2.65
2022-09-12T12:57:49.509Z,2.92
2022-09-12T13:00:32.745Z,2.63
2022-09-12T13:03:01.197Z,3.13
2022-09-12T13:05:27.521Z,3.22
2022-09-12T13:07:56.238Z,3.08
2022-09-12T13:10:25.508Z,2.85
2022-09-12T13:12:49.697Z,3.30
2022-09-12T13:15:52.039Z,3.25
2022-09-12T13:18:23.338Z,3.20
2022-09-12T13:20:53.658Z,3.47
2022-09-12T13:23:24.706Z,3.17
2022-09-12T13:25:54.938Z,3.08
2022-09-12T13:28:19.041Z,2.90
2022-09-12T13:30:47.787Z,3.17
2022-09-12T13:33:22.077Z,3.00
2022-09-12T13:36:15.193Z,3.17
2022-09-12T13:38:52.732Z,3.20
2022-09-12T13:41:38.544Z,2.75
2022-09-12T13:44:03.521Z,3.17
2022-09-12T13:46:32.682Z,3.38
2022-09-12T13:48:56.235Z,3.08
2022-09-12T13:51:26.315Z,3.08
2022-09-12T13:53:50.739Z,3.10
2022-09-12T13:56:18.947Z,3.42
2022-09-12T13:58:56.472Z,3.10
2022-09-12T14:01:20.044Z,3.45
2022-09-12T14:04:09.200Z,3.00
2022-09-12T14:06:45.130Z,3.00
2022-09-12T14:09:15.781Z,3.60
2022-09-12T14:11:40.061Z,3.40
2022-09-12T14:14:08.249Z,3.47
2022-09-12T14:16:35.125Z,3.50
2022-09-12T14:19:00.609Z,3.30
2022-09-12T14:21:35.778Z,3.80
2022-09-12T14:24:00.735Z,3.50
2022-09-12T14:26:24.724Z,3.63
2022-09-12T14:28:49.351Z,3.40
2022-09-12T14:31:24.902Z,3.67
2022-09-12T14:33:50.462Z,3.10
2022-09-12T14:36:22.956Z,3.67
2022-09-12T14:38:50.966Z,3.40
2022-09-12T14:41:24.138Z,3.30
2022-09-12T14:43:53.810Z,3.00
2022-09-12T14:46:21.719Z,2.97
2022-09-12T14:48:50.169Z,2.95
2022-09-12T14:51:24.100Z,3.50
2022-09-12T14:53:50.431Z,3.20
2022-09-12T14:56:14.976Z,3.40
2022-09-12T14:58:39.415Z,3.35
2022-09-12T15:01:22.341Z,3.35
2022-09-12T15:03:53.878Z,3.08
2022-09-12T15:06:26.158Z,3.60
2022-09-12T15:08:49.755Z,2.90
2022-09-12T15:11:13.475Z,3.05
2022-09-12T15:13:43.072Z,3.10
2022-09-12T15:16:11.501Z,3.03
2022-09-12T15:18:35.057Z,2.90
2022-09-12T15:21:04.679Z,2.97
2022-09-12T15:23:36.662Z,2.88
2022-09-12T15:26:00.499Z,2.72
2022-09-12T15:28:26.912Z,3.03
2022-09-12T15:30:52.988Z,2.80
2022-09-12T15:33:16.742Z,2.67
2022-09-12T15:35:40.512Z,3.03
2022-09-12T15:38:04.130Z,2.53
2022-09-12T15:40:28.917Z,2.72
2022-09-12T15:42:52.736Z,3.13
2022-09-12T15:45:20.929Z,2.75
2022-09-12T15:47:44.389Z,3.25
2022-09-12T15:50:09.105Z,3.28
2022-09-12T15:52:32.750Z,2.78
2022-09-12T15:54:56.277Z,3.00
2022-09-12T15:57:21.157Z,2.80
2022-09-12T15:59:44.644Z,2.97
2022-09-12T16:02:10.490Z,2.92
2022-09-12T16:04:34.034Z,3.03
2022-09-12T16:06:58.544Z,2.80
2022-09-12T16:09:22.548Z,3.08
2022-09-12T16:11:46.759Z,2.80
2022-09-12T16:14:15.029Z,3.00
2022-09-12T16:16:38.641Z,2.50
2022-09-12T16:19:02.146Z,2.95
2022-09-12T16:21:26.593Z,3.28
2022-09-12T16:23:50.625Z,3.10
2022-09-12T16:26:14.187Z,3.47
2022-09-12T16:28:37.766Z,3.03
2022-09-12T16:31:05.793Z,3.22
2022-09-12T16:33:31.397Z,3.15
2022-09-12T16:35:55.794Z,3.05
2022-09-12T16:38:19.680Z,3.03
2022-09-12T16:40:43.188Z,3.33
2022-09-12T16:43:07.185Z,3.00
2022-09-12T16:45:30.765Z,2.70
2022-09-12T16:47:55.697Z,3.30
2022-09-12T16:50:19.259Z,3.40
2022-09-12T16:52:42.798Z,3.10
2022-09-12T16:55:07.759Z,2.78
2022-09-12T16:57:31.293Z,2.78
2022-09-12T16:59:55.276Z,2.85
2022-09-12T17:02:18.838Z,3.08
2022-09-12T17:04:44.448Z,3.08
2022-09-12T17:07:08.068Z,2.33
2022-09-12T17:09:31.596Z,2.88
2022-09-12T17:11:55.504Z,3.28
2022-09-12T17:14:19.219Z,3.38
2022-09-12T17:16:47.990Z,2.95
2022-09-12T17:19:18.696Z,2.95
2022-09-12T17:21:43.671Z,3.10
2022-09-12T17:24:07.607Z,2.90
2022-09-12T17:26:31.678Z,3.45
2022-09-12T17:28:55.165Z,3.08
2022-09-12T17:31:18.881Z,2.90
2022-09-12T17:33:43.004Z,3.35
2022-09-12T17:36:10.541Z,3.05
2022-09-12T17:38:36.487Z,2.72
2022-09-12T17:41:07.695Z,3.15
2022-09-12T17:43:31.632Z,3.20
2022-09-12T17:45:57.709Z,3.15
2022-09-12T17:48:21.227Z,3.45
2022-09-12T17:50:45.658Z,3.58
2022-09-12T17:53:09.880Z,3.70
2022-09-12T17:55:36.599Z,3.58
2022-09-12T17:58:01.280Z,3.20
2022-09-12T18:00:45.195Z,3.30
2022-09-12T18:03:07.736Z,3.28
2022-09-12T18:05:31.291Z,3.80
2022-09-12T18:07:54.833Z,3.55
2022-09-12T18:10:18.416Z,3.47
2022-09-12T18:12:43.390Z,3.22
2022-09-12T18:15:08.629Z,3.30
2022-09-12T18:17:32.141Z,3.90
2022-09-12T18:19:55.696Z,4.00
2022-09-12T18:22:19.272Z,4.00
2022-09-12T18:24:43.049Z,4.13
2022-09-12T18:27:06.686Z,4.60
2022-09-12T18:29:31.770Z,4.60
2022-09-12T18:31:55.446Z,4.40
2022-09-12T18:34:19.327Z,4.65
2022-09-12T18:36:57.961Z,4.20
2022-09-12T18:39:37.769Z,4.30
2022-09-12T18:42:04.181Z,4.78
2022-09-12T18:44:27.929Z,4.57
2022-09-12T18:46:52.954Z,5.00
2022-09-12T18:49:16.416Z,4.97
2022-09-12T18:51:41.838Z,4.15
2022-09-12T18:54:08.805Z,4.68
2022-09-12T18:56:36.000Z,4.25
2022-09-12T18:59:00.267Z,5.25
2022-09-12T19:01:26.350Z,4.80
2022-09-12T19:03:52.253Z,5.18
2022-09-12T19:06:19.193Z,5.07
2022-09-12T19:08:43.006Z,5.15
2022-09-12T19:11:07.799Z,4.95
2022-09-12T19:13:31.576Z,4.15
2022-09-12T19:15:55.042Z,5.63
2022-09-12T19:18:18.653Z,5.07
2022-09-12T19:20:43.450Z,5.35
2022-09-12T19:23:06.953Z,5.35
2022-09-12T19:25:30.508Z,5.72
2022-09-12T19:27:53.972Z,5.13
2022-09-12T19:30:17.551Z,6.05
2022-09-12T19:32:41.065Z,5.47
2022-09-12T19:35:04.891Z,5.90
2022-09-12T19:37:31.146Z,5.78
2022-09-12T19:39:54.660Z,5.60
2022-09-12T19:42:18.259Z,5.90
2022-09-12T19:44:41.727Z,5.28
2022-09-12T19:47:05.364Z,5.70
2022-09-12T19:49:28.859Z,6.00
2022-09-12T19:51:53.145Z,5.32
2022-09-12T19:54:18.058Z,5.40
2022-09-12T19:56:41.622Z,5.90
2022-09-12T19:59:05.265Z,5.22
2022-09-12T20:01:29.496Z,5.90
2022-09-12T20:03:53.910Z,5.90
2022-09-12T20:06:18.959Z,5.75
2022-09-12T20:08:43.978Z,6.10
2022-09-12T20:11:09.856Z,5.97
2022-09-12T20:13:33.352Z,6.78
2022-09-12T20:15:56.990Z,5.95
2022-09-12T20:18:20.390Z,5.97
2022-09-12T20:20:43.849Z,6.35
2022-09-12T20:23:07.328Z,6.55
2022-09-12T20:25:30.912Z,6.65
2022-09-12T20:27:59.914Z,6.00
2022-09-12T20:30:23.762Z,6.20
2022-09-12T20:32:47.234Z,6.32
2022-09-12T20:35:11.432Z,5.90
2022-09-12T20:37:36.018Z,5.93
2022-09-12T20:39:59.528Z,6.22
2022-09-12T20:42:22.990Z,6.15
2022-09-12T20:44:48.593Z,6.50
2022-09-12T20:47:12.073Z,6.00
2022-09-12T20:49:38.644Z,6.03
2022-09-12T20:52:02.353Z,5.90
2022-09-12T20:54:26.023Z,6.07
2022-09-12T20:56:49.499Z,5.40
2022-09-12T20:59:13.568Z,5.25
2022-09-12T21:01:38.597Z,5.50
2022-09-12T21:04:02.678Z,4.85
2022-09-12T21:06:26.120Z,5.28
2022-09-12T21:08:50.827Z,5.25
2022-09-12T21:11:15.237Z,5.22
2022-09-12T21:13:39.113Z,4.60
2022-09-12T21:16:04.998Z,4.63
2022-09-12T21:18:30.273Z,4.53
2022-09-12T21:20:54.519Z,4.70
2022-09-12T21:23:18.074Z,4.47
2022-09-12T21:25:41.584Z,4.97
2022-09-12T21:28:05.130Z,4.97
2022-09-12T21:30:29.782Z,5.00
2022-09-12T21:32:53.324Z,4.95
2022-09-12T21:35:18.478Z,4.75
2022-09-12T21:37:41.876Z,4.70
2022-09-12T21:40:06.116Z,5.38
2022-09-12T21:42:29.657Z,5.10
2022-09-12T21:44:53.181Z,5.07
2022-09-12T21:47:16.838Z,5.28
2022-09-12T21:49:40.294Z,5.22
2022-09-12T21:52:05.545Z,5.60
2022-09-12T21:54:29.233Z,5.32
2022-09-12T21:56:53.115Z,5.35
2022-09-12T21:59:16.595Z,5.07
2022-09-12T22:01:40.266Z,5.38
2022-09-12T22:04:04.533Z,5.57
2022-09-12T22:06:28.003Z,5.68
2022-09-12T22:08:52.824Z,5.75
2022-09-12T22:11:17.584Z,4.97
2022-09-12T22:13:43.833Z,5.05
2022-09-12T22:16:07.713Z,5.32
2022-09-12T22:18:33.180Z,5.65
2022-09-12T22:21:01.942Z,5.40
2022-09-12T22:23:42.870Z,4.95
2022-09-12T22:26:09.078Z,4.93
2022-09-12T22:28:32.718Z,5.20
2022-09-12T22:30:56.265Z,5.60
2022-09-12T22:33:19.850Z,5.10
2022-09-12T22:35:44.334Z,5.47
2022-09-12T22:38:07.725Z,5.05
2022-09-12T22:40:31.163Z,4.85
2022-09-12T22:42:56.048Z,4.80
2022-09-12T22:45:19.956Z,5.03
2022-09-12T22:47:43.597Z,5.00
2022-09-12T22:50:08.558Z,4.65
2022-09-12T22:52:32.036Z,4.60
2022-09-12T22:54:55.499Z,4.45
2022-09-12T22:57:19.363Z,4.30
2022-09-12T22:59:44.172Z,4.47
2022-09-12T23:02:07.895Z,3.95
2022-09-12T23:04:31.335Z,3.58
2022-09-12T23:06:54.847Z,4.20
2022-09-12T23:09:18.841Z,3.90
2022-09-12T23:11:42.242Z,4.40
2022-09-12T23:14:05.683Z,4.03
2022-09-12T23:16:32.144Z,3.65
2022-09-12T23:18:55.585Z,4.30
2022-09-12T23:21:21.657Z,3.70
2022-09-12T23:23:45.438Z,3.83
2022-09-12T23:26:12.624Z,4.10
2022-09-12T23:28:37.842Z,3.63
2022-09-12T23:31:01.569Z,3.78
2022-09-12T23:33:27.359Z,3.40
2022-09-12T23:35:51.209Z,3.65
2022-09-12T23:38:14.864Z,3.50
2022-09-12T23:40:38.468Z,3.53
2022-09-12T23:43:01.866Z,3.25
2022-09-12T23:45:25.419Z,3.53
2022-09-12T23:47:48.906Z,3.47
2022-09-12T23:50:13.712Z,3.58
2022-09-12T23:52:37.301Z,3.40
2022-09-12T23:55:00.714Z,3.45
2022-09-12T23:57:24.158Z,4.18
2022-09-12T23:59:47.555Z,3.67
